createdAt,value
2018-12-20T00:01:03.954Z,95883.23
2018-12-20T00:03:30.538Z,95881.84
2018-12-20T00:05:57.250Z,95882.97
2018-12-20T00:08:23.966Z,95878.20
2018-12-20T00:10:50.624Z,95877.81
2018-12-20T00:13:17.238Z,95882.60
2018-12-20T00:15:43.970Z,95882.48
2018-12-20T00:18:10.592Z,95893.22
2018-12-20T00:20:37.263Z,95894.72
2018-12-20T00:23:04.048Z,95893.33
2018-12-20T00:25:30.644Z,95892.70
2018-12-20T00:27:57.336Z,95894.86
2018-12-20T00:30:24.084Z,95902.81
2018-12-20T00:32:50.721Z,95900.28
2018-12-20T00:35:17.592Z,95909.38
2018-12-20T00:37:44.091Z,95906.34
2018-12-20T00:40:12.900Z,95912.64
2018-12-20T00:42:39.493Z,95910.46
2018-12-20T00:45:06.141Z,95916.42
2018-12-20T00:47:32.951Z,95913.52
2018-12-20T00:49:59.510Z,95914.55
2018-12-20T00:52:26.128Z,95922.50
2018-12-20T00:54:52.780Z,95921.63
2018-12-20T00:57:19.589Z,95919.34
2018-12-20T00:59:46.121Z,95922.25
2018-12-20T01:02:12.817Z,95922.53
2018-12-20T01:04:39.499Z,95924.16
2018-12-20T01:07:06.188Z,95924.02
2018-12-20T01:09:32.840Z,95924.02
2018-12-20T01:11:59.516Z,95923.28
2018-12-20T01:14:26.248Z,95918.84
2018-12-20T01:16:52.856Z,95922.28
2018-12-20T01:19:19.596Z,95917.97
2018-12-20T01:21:46.216Z,95918.88
2018-12-20T01:24:12.856Z,95920.12
2018-12-20T01:26:39.504Z,95913.94
2018-12-20T01:29:06.218Z,95911.41
2018-12-20T01:31:32.868Z,95913.94
2018-12-20T01:33:59.671Z,95908.63
2018-12-20T01:36:26.308Z,95904.20
2018-12-20T01:38:53.174Z,95904.21
2018-12-20T01:41:19.634Z,95902.58
2018-12-20T01:43:46.340Z,95897.40
2018-12-20T01:46:13.014Z,95897.02
2018-12-20T01:48:39.754Z,95891.32
2018-12-20T01:51:06.413Z,95885.00
2018-12-20T01:53:33.197Z,95887.27
2018-12-20T01:55:59.732Z,95879.20
2018-12-20T01:58:26.345Z,95877.30
2018-12-20T02:00:52.978Z,95876.53
2018-12-20T02:03:19.686Z,95874.12
2018-12-20T02:05:46.539Z,95869.58
2018-12-20T02:08:13.200Z,95867.57
2018-12-20T02:10:39.711Z,95861.89
2018-12-20T02:13:06.471Z,95861.63
2018-12-20T02:15:33.087Z,95860.05
2018-12-20T02:17:59.756Z,95866.26
2018-12-20T02:20:26.392Z,95858.68
2018-12-20T02:22:53.317Z,95862.58
2018-12-20T02:25:19.923Z,95861.73
2018-12-20T02:27:46.576Z,95866.42
2018-12-20T02:30:13.334Z,95868.67
2018-12-20T02:32:40.035Z,95867.80
2018-12-20T02:35:06.689Z,95867.04
2018-12-20T02:37:33.366Z,95869.47
2018-12-20T02:40:00.194Z,95868.18
2018-12-20T02:42:26.803Z,95866.80
2018-12-20T02:44:53.613Z,95866.03
2018-12-20T02:47:20.267Z,95864.15
2018-12-20T02:49:46.777Z,95863.66
2018-12-20T02:52:13.675Z,95866.55
2018-12-20T02:54:40.225Z,95873.38
2018-12-20T02:57:06.887Z,95874.01
2018-12-20T02:59:33.586Z,95873.24
2018-12-20T03:02:00.249Z,95873.24
2018-12-20T03:04:26.921Z,95875.77
2018-12-20T03:06:56.980Z,95878.03
2018-12-20T03:09:23.513Z,95877.55
2018-12-20T03:11:50.225Z,95878.70
2018-12-20T03:14:17.047Z,95877.03
2018-12-20T03:16:43.621Z,95877.03
2018-12-20T03:19:10.220Z,95879.45
2018-12-20T03:21:36.994Z,95879.56
2018-12-20T03:24:03.608Z,95884.49
2018-12-20T03:26:30.274Z,95883.75
2018-12-20T03:28:57.020Z,95881.20
2018-12-20T03:31:23.574Z,95882.47
2018-12-20T03:33:50.726Z,95886.92
2018-12-20T03:36:17.023Z,95887.58
2018-12-20T03:38:43.528Z,95884.69
2018-12-20T03:41:10.222Z,95883.03
2018-12-20T03:43:36.791Z,95879.63
2018-12-20T03:46:03.726Z,95877.37
2018-12-20T03:48:30.106Z,95878.13
2018-12-20T03:50:56.754Z,95880.53
2018-12-20T03:53:23.586Z,95886.47
2018-12-20T03:55:50.069Z,95882.54
2018-12-20T03:58:16.707Z,95887.01
2018-12-20T04:00:43.632Z,95887.01
2018-12-20T04:03:09.993Z,95883.09
2018-12-20T04:05:36.905Z,95884.72
2018-12-20T04:08:03.335Z,95879.30
2018-12-20T04:10:29.983Z,95878.05
2018-12-20T04:12:56.638Z,95881.84
2018-12-20T04:15:23.279Z,95883.09
2018-12-20T04:17:49.965Z,95885.23
2018-12-20T04:20:16.744Z,95886.63
2018-12-20T04:22:43.441Z,95883.61
2018-12-20T04:25:09.975Z,95893.05
2018-12-20T04:27:36.679Z,95892.70
2018-12-20T04:30:03.232Z,95893.33
2018-12-20T04:32:30.135Z,95891.04
2018-12-20T04:34:56.666Z,95892.13
2018-12-20T04:37:23.180Z,95898.28
2018-12-20T04:39:49.810Z,95893.87
2018-12-20T04:42:16.521Z,95896.89
2018-12-20T04:44:43.429Z,95897.27
2018-12-20T04:47:09.847Z,95901.82
2018-12-20T04:49:36.656Z,95904.49
2018-12-20T04:52:03.294Z,95907.02
2018-12-20T04:54:29.950Z,95907.02
2018-12-20T04:56:56.487Z,95907.13
2018-12-20T04:59:23.136Z,95915.87
2018-12-20T05:01:49.803Z,95906.78
2018-12-20T05:04:16.753Z,95909.26
2018-12-20T05:06:43.126Z,95912.64
2018-12-20T05:09:09.773Z,95917.81
2018-12-20T05:11:36.602Z,95913.64
2018-12-20T05:14:03.120Z,95913.78
2018-12-20T05:16:29.802Z,95910.89
2018-12-20T05:18:56.572Z,95914.44
2018-12-20T05:21:23.030Z,95917.73
2018-12-20T05:23:49.714Z,95920.75
2018-12-20T05:26:16.335Z,95924.41
2018-12-20T05:28:43.207Z,95920.62
2018-12-20T05:31:09.641Z,95919.23
2018-12-20T05:33:36.491Z,95919.23
2018-12-20T05:36:02.927Z,95925.55
2018-12-20T05:38:29.605Z,95923.64
2018-12-20T05:40:56.255Z,95923.03
2018-12-20T05:43:22.882Z,95921.03
2018-12-20T05:45:49.573Z,95922.08
2018-12-20T05:48:16.354Z,95922.47
2018-12-20T05:50:43.005Z,95926.30
2018-12-20T05:53:09.535Z,95934.52
2018-12-20T05:55:36.178Z,95938.69
2018-12-20T05:58:02.997Z,95942.62
2018-12-20T06:00:29.672Z,95941.05
2018-12-20T06:02:56.507Z,95937.02
2018-12-20T06:05:26.095Z,95933.23
2018-12-20T06:07:52.800Z,95940.18
2018-12-20T06:10:19.416Z,95942.09
2018-12-20T06:12:46.066Z,95936.91
2018-12-20T06:15:12.692Z,95933.23
2018-12-20T06:17:39.338Z,95932.74
2018-12-20T06:20:06.082Z,95923.89
2018-12-20T06:22:32.649Z,95932.11
2018-12-20T06:24:59.288Z,95929.33
2018-12-20T06:27:28.754Z,95925.44
2018-12-20T06:29:55.394Z,95923.15
2018-12-20T06:32:22.041Z,95929.22
2018-12-20T06:34:48.704Z,95933.88
2018-12-20T06:37:15.354Z,95938.05
2018-12-20T06:39:42.011Z,95936.66
2018-12-20T06:42:08.709Z,95931.63
2018-12-20T06:44:35.358Z,95934.67
2018-12-20T06:47:02.102Z,95936.64
2018-12-20T06:49:28.764Z,95946.44
2018-12-20T06:51:56.012Z,95941.95
2018-12-20T06:54:22.117Z,95946.84
2018-12-20T06:56:48.762Z,95948.66
2018-12-20T06:59:15.574Z,95951.05
2018-12-20T07:01:43.293Z,95955.22
2018-12-20T07:04:12.683Z,95958.54
2018-12-20T07:06:39.364Z,95955.78
2018-12-20T07:09:06.053Z,95967.50
2018-12-20T07:11:32.725Z,95958.89
2018-12-20T07:13:59.436Z,95972.44
2018-12-20T07:16:29.404Z,95964.99
2018-12-20T07:18:52.744Z,95974.23
2018-12-20T07:21:19.405Z,95977.64
2018-12-20T07:23:46.105Z,95979.16
2018-12-20T07:26:12.749Z,95977.36
2018-12-20T07:28:39.407Z,95984.28
2018-12-20T07:31:06.130Z,95992.95
2018-12-20T07:33:32.785Z,95991.29
2018-12-20T07:35:59.491Z,95987.02
2018-12-20T07:38:26.193Z,95989.77
2018-12-20T07:40:52.954Z,95989.63
2018-12-20T07:43:19.506Z,95991.67
2018-12-20T07:45:46.169Z,95992.16
2018-12-20T07:48:12.815Z,95990.02
2018-12-20T07:50:39.478Z,95990.61
2018-12-20T07:53:06.250Z,95980.36
2018-12-20T07:55:32.907Z,95988.45
2018-12-20T07:57:59.649Z,95992.00
2018-12-20T08:00:26.359Z,95994.16
2018-12-20T08:02:53.127Z,95989.36
2018-12-20T08:05:19.775Z,95994.42
2018-12-20T08:07:46.435Z,95996.47
2018-12-20T08:10:14.823Z,96001.89
2018-12-20T08:12:40.238Z,96001.02
2018-12-20T08:15:08.662Z,96007.10
2018-12-20T08:17:35.309Z,96002.27
2018-12-20T08:20:01.962Z,96005.33
2018-12-20T08:22:28.789Z,96004.32
2018-12-20T08:24:55.424Z,96001.00
2018-12-20T08:27:22.127Z,96006.06
2018-12-20T08:29:48.801Z,96015.69
2018-12-20T08:32:15.455Z,96011.77
2018-12-20T08:34:42.138Z,96005.58
2018-12-20T08:37:08.788Z,96000.34
2018-12-20T08:39:35.441Z,95991.02
2018-12-20T08:42:03.118Z,95997.45
2018-12-20T08:44:29.946Z,95997.86
2018-12-20T08:46:56.697Z,95999.00
2018-12-20T08:49:23.346Z,95991.19
2018-12-20T08:51:50.013Z,95993.23
2018-12-20T08:54:16.673Z,95988.53
2018-12-20T08:56:43.354Z,95989.67
2018-12-20T08:59:09.996Z,95988.70
2018-12-20T09:01:36.727Z,95990.69
2018-12-20T09:04:03.444Z,95992.58
2018-12-20T09:06:30.084Z,95991.97
2018-12-20T09:08:56.729Z,95989.06
2018-12-20T09:11:23.388Z,95993.47
2018-12-20T09:13:50.026Z,95994.13
2018-12-20T09:16:16.720Z,95983.00
2018-12-20T09:18:43.498Z,95982.11
2018-12-20T09:21:10.152Z,95981.47
2018-12-20T09:23:36.839Z,95980.95
2018-12-20T09:26:03.552Z,95985.38
2018-12-20T09:28:30.266Z,95979.47
2018-12-20T09:30:56.923Z,95982.35
2018-12-20T09:33:23.566Z,95983.52
2018-12-20T09:35:50.265Z,95982.13
2018-12-20T09:38:16.938Z,95969.85
2018-12-20T09:40:43.583Z,95967.81
2018-12-20T09:43:10.317Z,95965.68
2018-12-20T09:45:36.967Z,95969.70
2018-12-20T09:48:03.639Z,95960.87
2018-12-20T09:50:30.345Z,95960.98
2018-12-20T09:52:57.017Z,95948.61
2018-12-20T09:55:23.687Z,95940.39
2018-12-20T09:57:50.427Z,95941.15
2018-12-20T10:00:17.090Z,95943.14
2018-12-20T10:02:43.751Z,95942.52
2018-12-20T10:05:10.439Z,95936.31
2018-12-20T10:07:37.082Z,95926.33
2018-12-20T10:10:03.723Z,95917.35
2018-12-20T10:12:30.376Z,95922.03
2018-12-20T10:14:57.959Z,95937.58
2018-12-20T10:17:24.609Z,95926.97
2018-12-20T10:19:51.272Z,95910.43
2018-12-20T10:22:17.998Z,95916.36
2018-12-20T10:24:44.650Z,95918.66
2018-12-20T10:27:11.283Z,95922.41
2018-12-20T10:29:39.062Z,95923.95
2018-12-20T10:32:05.707Z,95924.48
2018-12-20T10:34:35.597Z,95910.04
2018-12-20T10:37:02.244Z,95917.14
2018-12-20T10:39:28.985Z,95905.50
2018-12-20T10:41:55.670Z,95906.36
2018-12-20T10:44:22.369Z,95900.41
2018-12-20T10:46:49.018Z,95913.06
2018-12-20T10:49:15.692Z,95907.27
2018-12-20T10:51:42.356Z,95908.66
2018-12-20T10:54:09.056Z,95904.11
2018-12-20T10:56:35.844Z,95879.69
2018-12-20T10:59:02.551Z,95888.02
2018-12-20T11:04:15.009Z,95893.73
2018-12-20T11:06:41.695Z,95881.23
2018-12-20T11:09:08.402Z,95866.18
2018-12-20T11:11:35.094Z,95874.13
2018-12-20T11:14:01.792Z,95861.09
2018-12-20T11:16:28.440Z,95853.01
2018-12-20T11:18:55.137Z,95856.79
2018-12-20T11:21:21.782Z,95859.17
2018-12-20T11:23:48.558Z,95853.11
2018-12-20T11:26:15.154Z,95845.16
2018-12-20T11:28:41.827Z,95863.02
2018-12-20T11:31:08.472Z,95860.38
2018-12-20T11:33:35.128Z,95863.28
2018-12-20T11:36:04.381Z,95856.69
2018-12-20T11:38:31.127Z,95860.03
2018-12-20T11:40:57.890Z,95856.05
2018-12-20T11:43:24.561Z,95855.11
2018-12-20T11:45:51.300Z,95854.75
2018-12-20T11:48:18.082Z,95851.98
2018-12-20T11:50:44.753Z,95846.17
2018-12-20T11:53:11.453Z,95835.94
2018-12-20T11:55:38.098Z,95833.42
2018-12-20T11:58:04.832Z,95843.22
2018-12-20T12:00:31.558Z,95850.44
2018-12-20T12:02:59.246Z,95845.27
2018-12-20T12:05:25.908Z,95856.13
2018-12-20T12:07:52.567Z,95856.16
2018-12-20T12:10:19.217Z,95854.52
2018-12-20T12:12:45.913Z,95856.15
2018-12-20T12:15:12.640Z,95846.75
2018-12-20T12:17:39.364Z,95847.17
2018-12-20T12:20:06.023Z,95845.44
2018-12-20T12:22:32.680Z,95844.80
2018-12-20T12:24:59.369Z,95850.45
2018-12-20T12:27:28.771Z,95856.50
2018-12-20T12:29:55.447Z,95858.41
2018-12-20T12:32:22.150Z,95846.53
2018-12-20T12:34:48.799Z,95852.86
2018-12-20T12:37:15.481Z,95848.52
2018-12-20T12:39:42.111Z,95850.56
2018-12-20T12:42:08.762Z,95852.58
2018-12-20T12:44:35.453Z,95841.40
2018-12-20T12:47:02.587Z,95850.61
2018-12-20T12:49:29.298Z,95848.17
2018-12-20T12:51:56.008Z,95842.50
2018-12-20T12:54:22.721Z,95840.05
2018-12-20T12:56:49.413Z,95832.63
2018-12-20T12:59:17.515Z,95837.55
2018-12-20T13:01:44.240Z,95836.55
2018-12-20T13:04:10.899Z,95832.91
2018-12-20T13:06:37.603Z,95836.07
2018-12-20T13:09:04.377Z,95840.48
2018-12-20T13:11:31.029Z,95849.41
2018-12-20T13:13:57.702Z,95846.67
2018-12-20T13:16:24.368Z,95858.16
2018-12-20T13:18:51.087Z,95860.31
2018-12-20T13:21:17.768Z,95852.77
2018-12-20T13:23:44.475Z,95859.55
2018-12-20T13:26:11.252Z,95856.92
2018-12-20T13:28:37.899Z,95855.66
2018-12-20T13:31:04.602Z,95846.08
2018-12-20T13:33:32.753Z,95857.50
2018-12-20T13:35:57.995Z,95861.92
2018-12-20T13:38:24.637Z,95846.77
2018-12-20T13:40:51.278Z,95851.84
2018-12-20T13:43:17.961Z,95859.66
2018-12-20T13:45:44.601Z,95859.08
2018-12-20T13:48:11.414Z,95862.41
2018-12-20T13:50:38.057Z,95878.27
2018-12-20T13:53:04.799Z,95877.40
2018-12-20T13:55:31.513Z,95877.73
2018-12-20T13:57:58.168Z,95869.14
2018-12-20T14:00:24.896Z,95875.13
2018-12-20T14:02:51.546Z,95881.34
2018-12-20T14:05:18.262Z,95869.96
2018-12-20T14:07:44.964Z,95862.75
2018-12-20T14:10:13.749Z,95873.38
2018-12-20T14:12:38.294Z,95868.44
2018-12-20T14:15:04.997Z,95871.86
2018-12-20T14:17:31.785Z,95875.77
2018-12-20T14:19:58.426Z,95880.58
2018-12-20T14:22:25.089Z,95884.86
2018-12-20T14:24:51.738Z,95876.28
2018-12-20T14:27:18.443Z,95869.31
2018-12-20T14:29:45.135Z,95872.97
2018-12-20T14:32:11.841Z,95874.45
2018-12-20T14:34:38.616Z,95872.20
2018-12-20T14:37:05.273Z,95871.56
2018-12-20T14:39:31.938Z,95856.00
2018-12-20T14:41:58.602Z,95857.17
2018-12-20T14:44:25.271Z,95855.74
2018-12-20T14:46:52.158Z,95851.59
2018-12-20T14:49:18.744Z,95862.45
2018-12-20T14:51:45.471Z,95862.76
2018-12-20T14:54:12.128Z,95860.25
2018-12-20T14:56:38.787Z,95859.34
2018-12-20T14:59:05.429Z,95866.42
2018-12-20T15:01:34.995Z,95855.95
2018-12-20T15:04:04.479Z,95854.05
2018-12-20T15:06:31.131Z,95853.13
2018-12-20T15:08:57.773Z,95846.19
2018-12-20T15:11:25.734Z,95858.09
2018-12-20T15:13:51.192Z,95876.54
2018-12-20T15:16:17.923Z,95882.08
2018-12-20T15:18:47.873Z,95880.59
2018-12-20T15:21:11.284Z,95873.61
2018-12-20T15:23:37.968Z,95882.24
2018-12-20T15:26:04.658Z,95886.91
2018-12-20T15:28:31.314Z,95885.37
2018-12-20T15:30:57.957Z,95894.00
2018-12-20T15:33:24.611Z,95898.53
2018-12-20T15:35:51.259Z,95898.92
2018-12-20T15:38:18.074Z,95906.12
2018-12-20T15:40:44.828Z,95913.34
2018-12-20T15:43:11.523Z,95925.45
2018-12-20T15:45:38.172Z,95930.25
2018-12-20T15:48:04.894Z,95934.97
2018-12-20T15:50:31.557Z,95926.85
2018-12-20T15:52:58.267Z,95931.13
2018-12-20T15:55:25.055Z,95932.03
2018-12-20T15:57:51.897Z,95932.52
2018-12-20T16:00:18.593Z,95937.98
2018-12-20T16:02:45.268Z,95936.70
2018-12-20T16:05:11.915Z,95941.89
2018-12-20T16:07:38.618Z,95935.80
2018-12-20T16:10:05.322Z,95943.03
2018-12-20T16:12:31.968Z,95935.05
2018-12-20T16:15:01.582Z,95939.98
2018-12-20T16:17:28.244Z,95943.01
2018-12-20T16:19:54.971Z,95949.34
2018-12-20T16:22:21.872Z,95954.79
2018-12-20T16:24:48.528Z,95961.48
2018-12-20T16:27:15.172Z,95966.91
2018-12-20T16:29:41.862Z,95959.69
2018-12-20T16:32:09.781Z,95960.98
2018-12-20T16:34:35.161Z,95967.28
2018-12-20T16:37:02.209Z,95970.97
2018-12-20T16:39:28.919Z,95967.02
2018-12-20T16:41:55.615Z,95970.82
2018-12-20T16:44:22.263Z,95975.62
2018-12-20T16:46:48.901Z,95970.83
2018-12-20T16:49:15.577Z,95971.81
2018-12-20T16:51:42.245Z,95982.69
2018-12-20T16:54:08.945Z,95985.71
2018-12-20T16:56:35.587Z,95980.80
2018-12-20T16:59:02.303Z,95991.02
2018-12-20T17:01:29.007Z,95983.06
2018-12-20T17:03:55.655Z,95982.05
2018-12-20T17:06:22.262Z,95979.30
2018-12-20T17:08:48.990Z,95967.28
2018-12-20T17:11:15.645Z,95974.74
2018-12-20T17:13:42.342Z,95978.67
2018-12-20T17:16:09.034Z,95976.91
2018-12-20T17:18:35.692Z,95976.37
2018-12-20T17:21:02.335Z,95975.38
2018-12-20T17:23:35.573Z,95970.17
2018-12-20T17:25:55.689Z,95966.77
2018-12-20T17:28:22.392Z,95969.80
2018-12-20T17:30:49.096Z,95976.50
2018-12-20T17:33:15.798Z,95972.82
2018-12-20T17:35:42.459Z,95976.83
2018-12-20T17:38:09.132Z,95966.61
2018-12-20T17:40:35.785Z,95964.45
2018-12-20T17:43:02.474Z,95963.34
2018-12-20T17:45:29.170Z,95963.33
2018-12-20T17:47:55.873Z,95966.25
2018-12-20T17:50:22.509Z,95968.92
2018-12-20T17:52:49.150Z,95966.39
2018-12-20T17:55:15.855Z,95965.12
2018-12-20T17:57:42.514Z,95964.99
2018-12-20T18:00:09.304Z,95963.11
2018-12-20T18:02:35.945Z,95970.83
2018-12-20T18:05:06.930Z,95962.59
2018-12-20T18:07:29.330Z,95966.63
2018-12-20T18:09:56.043Z,95967.39
2018-12-20T18:12:22.678Z,95968.02
2018-12-20T18:14:49.377Z,95967.02
2018-12-20T18:17:16.015Z,95971.54
2018-12-20T18:19:42.726Z,95980.09
2018-12-20T18:22:09.365Z,95980.47
2018-12-20T18:24:36.066Z,95983.39
2018-12-20T18:27:02.766Z,95979.84
2018-12-20T18:29:29.462Z,95978.34
2018-12-20T18:31:56.106Z,95983.03
2018-12-20T18:34:22.818Z,95978.73
2018-12-20T18:36:49.592Z,95974.70
2018-12-20T18:39:16.238Z,95967.38
2018-12-20T18:41:43.072Z,95958.38
2018-12-20T18:44:09.726Z,95978.84
2018-12-20T18:46:37.600Z,95986.30
2018-12-20T18:49:03.212Z,95991.86
2018-12-20T18:51:29.912Z,95984.91
2018-12-20T18:53:56.592Z,95981.51
2018-12-20T18:56:23.303Z,95989.84
2018-12-20T18:58:49.946Z,95980.50
2018-12-20T19:01:16.580Z,95989.95
2018-12-20T19:03:43.273Z,95985.72
2018-12-20T19:06:09.915Z,95990.05
2018-12-20T19:08:36.563Z,95990.81
2018-12-20T19:11:03.204Z,96001.02
2018-12-20T19:13:29.852Z,95998.66
2018-12-20T19:15:56.506Z,95999.81
2018-12-20T19:18:23.172Z,95986.55
2018-12-20T19:20:49.835Z,95985.16
2018-12-20T19:23:16.497Z,95987.86
2018-12-20T19:25:43.288Z,96000.23
2018-12-20T19:28:09.927Z,95994.40
2018-12-20T19:30:36.589Z,95997.56
2018-12-20T19:33:03.274Z,96008.05
2018-12-20T19:35:29.942Z,96003.64
2018-12-20T19:37:56.598Z,96008.81
2018-12-20T19:40:23.260Z,96003.50
2018-12-20T19:42:49.911Z,96002.36
2018-12-20T19:45:16.582Z,95997.42
2018-12-20T19:47:43.229Z,95996.61
2018-12-20T19:50:09.889Z,95995.33
2018-12-20T19:52:37.887Z,96010.02
2018-12-20T19:55:04.163Z,96012.14
2018-12-20T19:57:30.813Z,96015.20
2018-12-20T19:59:57.458Z,96009.27
2018-12-20T20:02:24.113Z,96004.33
2018-12-20T20:04:50.762Z,96010.79
2018-12-20T20:07:17.435Z,96016.21
2018-12-20T20:09:44.103Z,96024.94
2018-12-20T20:12:10.752Z,96020.28
2018-12-20T20:14:37.409Z,96020.14
2018-12-20T20:17:04.058Z,96024.20
2018-12-20T20:19:30.720Z,96017.64
2018-12-20T20:21:57.358Z,96020.55
2018-12-20T20:24:24.003Z,96014.97
2018-12-20T20:26:50.652Z,96016.49
2018-12-20T20:29:17.306Z,96025.30
2018-12-20T20:31:43.946Z,96021.55
2018-12-20T20:34:10.602Z,96019.67
2018-12-20T20:36:37.258Z,96019.78
2018-12-20T20:39:03.928Z,96017.38
2018-12-20T20:41:30.583Z,96011.73
2018-12-20T20:43:57.309Z,96010.99
2018-12-20T20:46:23.955Z,96023.39
2018-12-20T20:48:50.606Z,96034.27
2018-12-20T20:51:17.253Z,96036.17
2018-12-20T20:53:43.917Z,96032.13
2018-12-20T20:56:10.567Z,96027.70
2018-12-20T20:58:37.261Z,96025.45
2018-12-20T21:01:03.906Z,96024.30
2018-12-20T21:03:30.558Z,96023.55
2018-12-20T21:05:57.197Z,96026.98
2018-12-20T21:08:23.836Z,96018.40
2018-12-20T21:10:50.491Z,96019.89
2018-12-20T21:13:17.149Z,96024.20
2018-12-20T21:15:43.808Z,96023.58
2018-12-20T21:18:10.449Z,96033.69
2018-12-20T21:20:37.086Z,96031.28
2018-12-20T21:23:03.733Z,96025.31
2018-12-20T21:25:30.369Z,96023.16
2018-12-20T21:27:57.022Z,96017.38
2018-12-20T21:30:23.717Z,96017.59
2018-12-20T21:32:50.356Z,96017.63
2018-12-20T21:35:17.101Z,96023.16
2018-12-20T21:37:43.658Z,96016.36
2018-12-20T21:40:11.602Z,96011.97
2018-12-20T21:42:37.050Z,96013.60
2018-12-20T21:45:03.748Z,96019.67
2018-12-20T21:47:30.388Z,96014.81
2018-12-20T21:49:57.134Z,96019.60
2018-12-20T21:52:23.786Z,96010.89
2018-12-20T21:54:50.436Z,96006.10
2018-12-20T21:57:17.077Z,96009.26
2018-12-20T21:59:46.883Z,96008.15
2018-12-20T22:02:13.532Z,96005.38
2018-12-20T22:04:40.190Z,96005.09
2018-12-20T22:07:06.835Z,96013.05
2018-12-20T22:09:33.476Z,96022.14
2018-12-20T22:12:00.115Z,96020.01
2018-12-20T22:14:26.773Z,96020.01
2018-12-20T22:16:53.420Z,96021.30
2018-12-20T22:19:20.067Z,96026.22
2018-12-20T22:21:46.708Z,96019.14
2018-12-20T22:24:13.359Z,96019.16
2018-12-20T22:26:40.710Z,96012.88
2018-12-20T22:29:07.355Z,96017.83
2018-12-20T22:31:34.012Z,96020.61
2018-12-20T22:34:00.655Z,96018.98
2018-12-20T22:36:27.294Z,96008.63
2018-12-20T22:38:54.001Z,96010.13
2018-12-20T22:41:20.638Z,96008.39
2018-12-20T22:43:47.307Z,96005.74
2018-12-20T22:46:13.936Z,96010.25
2018-12-20T22:48:40.596Z,96008.38
2018-12-20T22:51:07.236Z,96006.41
2018-12-20T22:53:33.888Z,95994.03
2018-12-20T22:56:00.634Z,95986.08
2018-12-20T22:58:27.286Z,95991.66
2018-12-20T23:00:53.924Z,95997.88
2018-12-20T23:03:20.575Z,95999.03
2018-12-20T23:05:47.216Z,95994.38
2018-12-20T23:08:13.850Z,95993.48
2018-12-20T23:10:40.501Z,95995.15
2018-12-20T23:13:07.144Z,95987.20
2018-12-20T23:15:33.800Z,95996.92
2018-12-20T23:18:00.452Z,96000.33
2018-12-20T23:20:27.096Z,96001.23
2018-12-20T23:22:53.738Z,95992.66
2018-12-20T23:25:20.440Z,95995.67
2018-12-20T23:27:47.138Z,95998.21
2018-12-20T23:30:13.901Z,96005.02
2018-12-20T23:32:40.544Z,96004.39
2018-12-20T23:35:07.292Z,95999.46
2018-12-20T23:37:34.007Z,95994.77
2018-12-20T23:40:00.643Z,95995.05
2018-12-20T23:42:27.284Z,95989.97
2018-12-20T23:44:53.945Z,95989.20
2018-12-20T23:47:22.719Z,95985.42
2018-12-20T23:49:47.356Z,95982.08
2018-12-20T23:52:14.005Z,95981.00
2018-12-20T23:54:40.647Z,95986.17
2018-12-20T23:57:07.293Z,95994.94
2018-12-20T23:59:33.947Z,95992.65
